sensor_id;sensor_type;location;lat;lon;timestamp;temperature;humidity
23137;DHT22;11737;50.558;7.258;2022-11-14T00:00:55;3.30;99.90
23137;DHT22;11737;50.558;7.258;2022-11-14T00:03:22;3.30;99.90
23137;DHT22;11737;50.558;7.258;2022-11-14T00:05:50;3.40;99.90
23137;DHT22;11737;50.558;7.258;2022-11-14T00:08:20;3.40;99.90
23137;DHT22;11737;50.558;7.258;2022-11-14T00:10:50;3.30;99.90
23137;DHT22;11737;50.558;7.258;2022-11-14T00:13:18;3.30;99.90
23137;DHT22;11737;50.558;7.258;2022-11-14T00:15:51;3.40;99.90
23137;DHT22;11737;50.558;7.258;2022-11-14T00:18:22;3.40;99.90
23137;DHT22;11737;50.558;7.258;2022-11-14T00:20:51;3.30;99.90
23137;DHT22;11737;50.558;7.258;2022-11-14T00:23:19;3.20;99.90
23137;DHT22;11737;50.558;7.258;2022-11-14T00:25:48;3.20;99.90
23137;DHT22;11737;50.558;7.258;2022-11-14T00:28:15;3.20;99.90
23137;DHT22;11737;50.558;7.258;2022-11-14T00:30:47;3.20;99.90
23137;DHT22;11737;50.558;7.258;2022-11-14T00:33:17;3.20;99.90
23137;DHT22;11737;50.558;7.258;2022-11-14T00:35:54;3.10;99.90
23137;DHT22;11737;50.558;7.258;2022-11-14T00:41:11;3.00;99.90
23137;DHT22;11737;50.558;7.258;2022-11-14T00:43:38;2.90;99.90
23137;DHT22;11737;50.558;7.258;2022-11-14T00:46:06;2.80;99.90
23137;DHT22;11737;50.558;7.258;2022-11-14T00:48:33;2.90;99.90
23137;DHT22;11737;50.558;7.258;2022-11-14T00:51:01;2.90;99.90
23137;DHT22;11737;50.558;7.258;2022-11-14T00:53:28;3.00;99.90
23137;DHT22;11737;50.558;7.258;2022-11-14T00:55:56;3.10;99.90
23137;DHT22;11737;50.558;7.258;2022-11-14T00:58:23;3.20;99.90
23137;DHT22;11737;50.558;7.258;2022-11-14T01:00:51;3.20;99.90
23137;DHT22;11737;50.558;7.258;2022-11-14T01:03:19;3.20;99.90
23137;DHT22;11737;50.558;7.258;2022-11-14T01:05:49;3.30;99.90
23137;DHT22;11737;50.558;7.258;2022-11-14T01:08:18;3.40;99.90
23137;DHT22;11737;50.558;7.258;2022-11-14T01:10:48;3.50;99.90
23137;DHT22;11737;50.558;7.258;2022-11-14T01:13:17;3.50;99.90
23137;DHT22;11737;50.558;7.258;2022-11-14T01:18:33;3.70;99.90
23137;DHT22;11737;50.558;7.258;2022-11-14T01:21:04;3.80;99.90
23137;DHT22;11737;50.558;7.258;2022-11-14T01:23:32;3.90;99.90
23137;DHT22;11737;50.558;7.258;2022-11-14T01:28:50;4.00;99.90
23137;DHT22;11737;50.558;7.258;2022-11-14T01:31:22;4.00;99.90
23137;DHT22;11737;50.558;7.258;2022-11-14T01:33:51;4.20;99.90
23137;DHT22;11737;50.558;7.258;2022-11-14T01:36:19;4.30;99.90
23137;DHT22;11737;50.558;7.258;2022-11-14T01:38:51;4.50;99.90
23137;DHT22;11737;50.558;7.258;2022-11-14T01:41:19;4.70;99.90
23137;DHT22;11737;50.558;7.258;2022-11-14T01:43:47;4.80;99.90
23137;DHT22;11737;50.558;7.258;2022-11-14T01:46:23;4.80;99.90
23137;DHT22;11737;50.558;7.258;2022-11-14T01:51:55;4.80;99.90
23137;DHT22;11737;50.558;7.258;2022-11-14T01:54:26;4.80;99.90
23137;DHT22;11737;50.558;7.258;2022-11-14T01:56:57;4.80;99.90
23137;DHT22;11737;50.558;7.258;2022-11-14T01:59:30;4.80;99.90
23137;DHT22;11737;50.558;7.258;2022-11-14T02:02:01;4.80;99.90
23137;DHT22;11737;50.558;7.258;2022-11-14T02:04:32;4.80;99.90
23137;DHT22;11737;50.558;7.258;2022-11-14T02:07:01;4.80;99.90
23137;DHT22;11737;50.558;7.258;2022-11-14T02:09:33;4.80;99.90
23137;DHT22;11737;50.558;7.258;2022-11-14T02:12:02;4.80;99.90
23137;DHT22;11737;50.558;7.258;2022-11-14T02:14:30;4.80;99.90
23137;DHT22;11737;50.558;7.258;2022-11-14T02:16:58;4.80;99.90
23137;DHT22;11737;50.558;7.258;2022-11-14T02:19:47;4.80;99.90
23137;DHT22;11737;50.558;7.258;2022-11-14T02:22:31;4.80;99.90
23137;DHT22;11737;50.558;7.258;2022-11-14T02:24:58;4.80;99.90
23137;DHT22;11737;50.558;7.258;2022-11-14T02:27:26;4.90;99.90
23137;DHT22;11737;50.558;7.258;2022-11-14T02:29:53;4.90;99.90
23137;DHT22;11737;50.558;7.258;2022-11-14T02:32:21;4.80;99.90
23137;DHT22;11737;50.558;7.258;2022-11-14T02:34:48;4.90;99.90
23137;DHT22;11737;50.558;7.258;2022-11-14T02:37:16;4.90;99.90
23137;DHT22;11737;50.558;7.258;2022-11-14T02:39:43;5.00;99.90
23137;DHT22;11737;50.558;7.258;2022-11-14T02:42:11;5.00;99.90
23137;DHT22;11737;50.558;7.258;2022-11-14T02:44:38;4.90;99.90
23137;DHT22;11737;50.558;7.258;2022-11-14T02:47:06;4.90;99.90
23137;DHT22;11737;50.558;7.258;2022-11-14T02:49:33;4.80;99.90
23137;DHT22;11737;50.558;7.258;2022-11-14T02:52:01;4.90;99.90
23137;DHT22;11737;50.558;7.258;2022-11-14T02:54:28;4.90;99.90
23137;DHT22;11737;50.558;7.258;2022-11-14T02:56:56;4.90;99.90
23137;DHT22;11737;50.558;7.258;2022-11-14T02:59:23;4.80;99.90
23137;DHT22;11737;50.558;7.258;2022-11-14T03:01:51;4.80;99.90
23137;DHT22;11737;50.558;7.258;2022-11-14T03:04:18;4.90;99.90
23137;DHT22;11737;50.558;7.258;2022-11-14T03:06:46;4.90;99.90
23137;DHT22;11737;50.558;7.258;2022-11-14T03:09:13;4.80;99.90
23137;DHT22;11737;50.558;7.258;2022-11-14T03:11:41;4.80;99.90
23137;DHT22;11737;50.558;7.258;2022-11-14T03:14:08;4.70;99.90
23137;DHT22;11737;50.558;7.258;2022-11-14T03:16:36;4.60;99.90
23137;DHT22;11737;50.558;7.258;2022-11-14T03:19:03;4.50;99.90
23137;DHT22;11737;50.558;7.258;2022-11-14T03:21:31;4.40;99.90
23137;DHT22;11737;50.558;7.258;2022-11-14T03:23:58;4.30;99.90
23137;DHT22;11737;50.558;7.258;2022-11-14T03:26:26;4.30;99.90
23137;DHT22;11737;50.558;7.258;2022-11-14T03:28:53;4.30;99.90
23137;DHT22;11737;50.558;7.258;2022-11-14T03:31:21;4.40;99.90
23137;DHT22;11737;50.558;7.258;2022-11-14T03:33:48;4.30;99.90
23137;DHT22;11737;50.558;7.258;2022-11-14T03:36:16;4.30;99.90
23137;DHT22;11737;50.558;7.258;2022-11-14T03:38:44;4.30;99.90
23137;DHT22;11737;50.558;7.258;2022-11-14T03:41:31;4.20;99.90
23137;DHT22;11737;50.558;7.258;2022-11-14T03:43:58;4.20;99.90
23137;DHT22;11737;50.558;7.258;2022-11-14T03:46:26;4.20;99.90
23137;DHT22;11737;50.558;7.258;2022-11-14T03:48:53;4.10;99.90
23137;DHT22;11737;50.558;7.258;2022-11-14T03:51:21;4.10;99.90
23137;DHT22;11737;50.558;7.258;2022-11-14T03:53:48;4.10;99.90
23137;DHT22;11737;50.558;7.258;2022-11-14T03:56:16;4.10;99.90
23137;DHT22;11737;50.558;7.258;2022-11-14T03:58:43;4.10;99.90
23137;DHT22;11737;50.558;7.258;2022-11-14T04:01:11;4.10;99.90
23137;DHT22;11737;50.558;7.258;2022-11-14T04:03:38;4.20;99.90
23137;DHT22;11737;50.558;7.258;2022-11-14T04:06:06;4.20;99.90
23137;DHT22;11737;50.558;7.258;2022-11-14T04:08:33;4.20;99.90
23137;DHT22;11737;50.558;7.258;2022-11-14T04:11:01;4.20;99.90
23137;DHT22;11737;50.558;7.258;2022-11-14T04:13:28;4.20;99.90
23137;DHT22;11737;50.558;7.258;2022-11-14T04:15:57;4.20;99.90
23137;DHT22;11737;50.558;7.258;2022-11-14T04:18:25;4.20;99.90
23137;DHT22;11737;50.558;7.258;2022-11-14T04:20:53;4.20;99.90
23137;DHT22;11737;50.558;7.258;2022-11-14T04:23:21;4.30;99.90
23137;DHT22;11737;50.558;7.258;2022-11-14T04:25:48;4.20;99.90
23137;DHT22;11737;50.558;7.258;2022-11-14T04:28:16;4.20;99.90
23137;DHT22;11737;50.558;7.258;2022-11-14T04:30:44;4.20;99.90
23137;DHT22;11737;50.558;7.258;2022-11-14T04:33:11;4.30;99.90
23137;DHT22;11737;50.558;7.258;2022-11-14T04:35:39;4.30;99.90
23137;DHT22;11737;50.558;7.258;2022-11-14T04:38:06;4.40;99.90
23137;DHT22;11737;50.558;7.258;2022-11-14T04:40:34;4.40;99.90
23137;DHT22;11737;50.558;7.258;2022-11-14T04:43:01;4.40;99.90
23137;DHT22;11737;50.558;7.258;2022-11-14T04:45:29;4.50;99.90
23137;DHT22;11737;50.558;7.258;2022-11-14T04:47:56;4.50;99.90
23137;DHT22;11737;50.558;7.258;2022-11-14T04:50:24;4.60;99.90
23137;DHT22;11737;50.558;7.258;2022-11-14T04:52:52;4.60;99.90
23137;DHT22;11737;50.558;7.258;2022-11-14T04:55:19;4.60;99.90
23137;DHT22;11737;50.558;7.258;2022-11-14T04:57:47;4.60;99.90
23137;DHT22;11737;50.558;7.258;2022-11-14T05:00:16;4.60;99.90
23137;DHT22;11737;50.558;7.258;2022-11-14T05:02:44;4.70;99.90
23137;DHT22;11737;50.558;7.258;2022-11-14T05:05:11;4.80;99.90
23137;DHT22;11737;50.558;7.258;2022-11-14T05:07:39;4.90;99.90
23137;DHT22;11737;50.558;7.258;2022-11-14T05:10:07;5.00;99.90
23137;DHT22;11737;50.558;7.258;2022-11-14T05:12:35;5.00;99.90
23137;DHT22;11737;50.558;7.258;2022-11-14T05:15:03;5.20;99.90
23137;DHT22;11737;50.558;7.258;2022-11-14T05:17:30;5.30;99.90
23137;DHT22;11737;50.558;7.258;2022-11-14T05:19:58;5.40;99.90
23137;DHT22;11737;50.558;7.258;2022-11-14T05:22:25;5.50;99.90
23137;DHT22;11737;50.558;7.258;2022-11-14T05:24:53;5.70;99.90
23137;DHT22;11737;50.558;7.258;2022-11-14T05:27:20;5.80;99.90
23137;DHT22;11737;50.558;7.258;2022-11-14T05:29:48;5.80;99.90
23137;DHT22;11737;50.558;7.258;2022-11-14T05:32:15;5.90;99.90
23137;DHT22;11737;50.558;7.258;2022-11-14T05:34:43;6.00;99.90
23137;DHT22;11737;50.558;7.258;2022-11-14T05:37:10;5.90;99.90
23137;DHT22;11737;50.558;7.258;2022-11-14T05:39:38;5.90;99.90
23137;DHT22;11737;50.558;7.258;2022-11-14T05:42:06;6.00;99.90
23137;DHT22;11737;50.558;7.258;2022-11-14T05:44:33;6.00;99.90
23137;DHT22;11737;50.558;7.258;2022-11-14T05:47:01;6.00;99.90
23137;DHT22;11737;50.558;7.258;2022-11-14T05:49:28;6.00;99.90
23137;DHT22;11737;50.558;7.258;2022-11-14T05:51:56;6.00;99.90
23137;DHT22;11737;50.558;7.258;2022-11-14T05:54:23;6.00;99.90
23137;DHT22;11737;50.558;7.258;2022-11-14T05:56:51;6.10;99.90
23137;DHT22;11737;50.558;7.258;2022-11-14T05:59:18;6.10;99.90
23137;DHT22;11737;50.558;7.258;2022-11-14T06:01:46;6.10;99.90
23137;DHT22;11737;50.558;7.258;2022-11-14T06:04:13;6.10;99.90
23137;DHT22;11737;50.558;7.258;2022-11-14T06:06:41;6.20;99.90
23137;DHT22;11737;50.558;7.258;2022-11-14T06:09:08;6.20;99.90
23137;DHT22;11737;50.558;7.258;2022-11-14T06:11:36;6.30;99.90
23137;DHT22;11737;50.558;7.258;2022-11-14T06:14:03;6.30;99.90
23137;DHT22;11737;50.558;7.258;2022-11-14T06:16:31;6.30;99.90
23137;DHT22;11737;50.558;7.258;2022-11-14T06:18:59;6.20;99.90
23137;DHT22;11737;50.558;7.258;2022-11-14T06:21:26;6.20;99.90
23137;DHT22;11737;50.558;7.258;2022-11-14T06:23:53;6.30;99.90
23137;DHT22;11737;50.558;7.258;2022-11-14T06:26:23;6.30;99.90
23137;DHT22;11737;50.558;7.258;2022-11-14T06:28:52;6.50;99.90
23137;DHT22;11737;50.558;7.258;2022-11-14T06:31:21;6.50;99.90
23137;DHT22;11737;50.558;7.258;2022-11-14T06:33:49;6.60;99.90
23137;DHT22;11737;50.558;7.258;2022-11-14T06:36:16;6.60;99.90
23137;DHT22;11737;50.558;7.258;2022-11-14T06:38:44;6.60;99.90
23137;DHT22;11737;50.558;7.258;2022-11-14T06:41:18;6.60;99.90
23137;DHT22;11737;50.558;7.258;2022-11-14T06:43:47;6.60;99.90
23137;DHT22;11737;50.558;7.258;2022-11-14T06:46:18;6.70;99.90
23137;DHT22;11737;50.558;7.258;2022-11-14T06:48:47;6.70;99.90
23137;DHT22;11737;50.558;7.258;2022-11-14T06:51:16;6.80;99.90
23137;DHT22;11737;50.558;7.258;2022-11-14T06:53:44;6.80;99.90
23137;DHT22;11737;50.558;7.258;2022-11-14T06:56:14;6.80;99.90
23137;DHT22;11737;50.558;7.258;2022-11-14T06:58:44;6.90;99.90
23137;DHT22;11737;50.558;7.258;2022-11-14T07:01:20;6.90;99.90
23137;DHT22;11737;50.558;7.258;2022-11-14T07:03:49;6.90;99.90
23137;DHT22;11737;50.558;7.258;2022-11-14T07:06:19;6.90;99.90
23137;DHT22;11737;50.558;7.258;2022-11-14T07:08:47;6.90;99.90
23137;DHT22;11737;50.558;7.258;2022-11-14T07:11:17;7.00;99.90
23137;DHT22;11737;50.558;7.258;2022-11-14T07:13:57;7.10;99.90
23137;DHT22;11737;50.558;7.258;2022-11-14T07:16:27;7.10;99.90
23137;DHT22;11737;50.558;7.258;2022-11-14T07:18:56;7.20;99.90
23137;DHT22;11737;50.558;7.258;2022-11-14T07:21:26;7.20;99.90
23137;DHT22;11737;50.558;7.258;2022-11-14T07:23:55;7.30;99.90
23137;DHT22;11737;50.558;7.258;2022-11-14T07:26:23;7.30;99.90
23137;DHT22;11737;50.558;7.258;2022-11-14T07:28:51;7.40;99.90
23137;DHT22;11737;50.558;7.258;2022-11-14T07:31:19;7.50;99.90
23137;DHT22;11737;50.558;7.258;2022-11-14T07:33:47;7.50;99.90
23137;DHT22;11737;50.558;7.258;2022-11-14T07:36:15;7.60;99.90
23137;DHT22;11737;50.558;7.258;2022-11-14T07:38:43;7.60;99.90
23137;DHT22;11737;50.558;7.258;2022-11-14T07:41:15;7.60;99.90
23137;DHT22;11737;50.558;7.258;2022-11-14T07:43:42;7.60;99.90
23137;DHT22;11737;50.558;7.258;2022-11-14T07:46:16;7.70;99.90
23137;DHT22;11737;50.558;7.258;2022-11-14T07:48:44;7.70;99.90
23137;DHT22;11737;50.558;7.258;2022-11-14T07:51:17;7.80;99.90
23137;DHT22;11737;50.558;7.258;2022-11-14T07:53:45;7.80;99.90
23137;DHT22;11737;50.558;7.258;2022-11-14T07:56:13;7.90;99.90
23137;DHT22;11737;50.558;7.258;2022-11-14T07:58:42;7.90;99.90
23137;DHT22;11737;50.558;7.258;2022-11-14T08:01:11;8.00;99.90
23137;DHT22;11737;50.558;7.258;2022-11-14T08:03:38;8.00;99.90
23137;DHT22;11737;50.558;7.258;2022-11-14T08:06:11;8.00;99.90
23137;DHT22;11737;50.558;7.258;2022-11-14T08:08:39;8.00;99.90
23137;DHT22;11737;50.558;7.258;2022-11-14T08:11:07;8.00;99.90
23137;DHT22;11737;50.558;7.258;2022-11-14T08:13:35;8.10;99.90
23137;DHT22;11737;50.558;7.258;2022-11-14T08:18:53;8.10;99.90
23137;DHT22;11737;50.558;7.258;2022-11-14T08:21:21;8.20;99.90
23137;DHT22;11737;50.558;7.258;2022-11-14T08:23:48;8.20;99.90
23137;DHT22;11737;50.558;7.258;2022-11-14T08:26:16;8.20;99.90
23137;DHT22;11737;50.558;7.258;2022-11-14T08:28:43;8.30;99.90
23137;DHT22;11737;50.558;7.258;2022-11-14T08:31:11;8.30;99.90
23137;DHT22;11737;50.558;7.258;2022-11-14T08:33:39;8.30;99.90
23137;DHT22;11737;50.558;7.258;2022-11-14T08:36:08;8.40;99.90
23137;DHT22;11737;50.558;7.258;2022-11-14T08:38:36;8.40;99.90
23137;DHT22;11737;50.558;7.258;2022-11-14T08:41:04;8.40;99.90
23137;DHT22;11737;50.558;7.258;2022-11-14T08:43:32;8.40;99.90
23137;DHT22;11737;50.558;7.258;2022-11-14T08:46:02;8.40;99.90
23137;DHT22;11737;50.558;7.258;2022-11-14T08:48:30;8.50;99.90
23137;DHT22;11737;50.558;7.258;2022-11-14T08:51:03;8.50;99.90
23137;DHT22;11737;50.558;7.258;2022-11-14T08:53:32;8.50;99.90
23137;DHT22;11737;50.558;7.258;2022-11-14T08:56:00;8.50;99.90
23137;DHT22;11737;50.558;7.258;2022-11-14T08:58:29;8.60;99.90
23137;DHT22;11737;50.558;7.258;2022-11-14T09:01:04;8.60;99.90
23137;DHT22;11737;50.558;7.258;2022-11-14T09:03:33;8.70;99.90
23137;DHT22;11737;50.558;7.258;2022-11-14T09:06:01;8.70;99.90
23137;DHT22;11737;50.558;7.258;2022-11-14T09:08:30;8.80;99.90
23137;DHT22;11737;50.558;7.258;2022-11-14T09:11:02;8.90;99.90
23137;DHT22;11737;50.558;7.258;2022-11-14T09:13:33;8.90;99.90
23137;DHT22;11737;50.558;7.258;2022-11-14T09:16:00;9.00;99.90
23137;DHT22;11737;50.558;7.258;2022-11-14T09:18:29;9.00;99.90
23137;DHT22;11737;50.558;7.258;2022-11-14T09:21:05;9.10;99.90
23137;DHT22;11737;50.558;7.258;2022-11-14T09:23:33;9.10;99.90
23137;DHT22;11737;50.558;7.258;2022-11-14T09:26:05;9.00;99.90
23137;DHT22;11737;50.558;7.258;2022-11-14T09:28:33;9.00;99.90
23137;DHT22;11737;50.558;7.258;2022-11-14T09:31:07;9.00;99.90
23137;DHT22;11737;50.558;7.258;2022-11-14T09:33:32;9.10;99.90
23137;DHT22;11737;50.558;7.258;2022-11-14T09:36:03;9.20;99.90
23137;DHT22;11737;50.558;7.258;2022-11-14T09:38:30;9.30;99.90
23137;DHT22;11737;50.558;7.258;2022-11-14T09:41:24;9.40;99.90
23137;DHT22;11737;50.558;7.258;2022-11-14T09:44:13;9.50;99.90
23137;DHT22;11737;50.558;7.258;2022-11-14T09:46:42;9.60;99.90
23137;DHT22;11737;50.558;7.258;2022-11-14T09:51:49;9.70;99.90
23137;DHT22;11737;50.558;7.258;2022-11-14T09:57:17;9.90;99.90
23137;DHT22;11737;50.558;7.258;2022-11-14T09:59:45;9.90;99.90
23137;DHT22;11737;50.558;7.258;2022-11-14T10:02:40;10.00;99.90
23137;DHT22;11737;50.558;7.258;2022-11-14T10:11:21;10.30;99.90
23137;DHT22;11737;50.558;7.258;2022-11-14T10:17:00;10.30;99.90
23137;DHT22;11737;50.558;7.258;2022-11-14T10:23:14;10.30;99.90
23137;DHT22;11737;50.558;7.258;2022-11-14T10:25:48;10.20;99.90
23137;DHT22;11737;50.558;7.258;2022-11-14T10:36:22;10.20;99.90
23137;DHT22;11737;50.558;7.258;2022-11-14T10:39:11;10.20;99.90
23137;DHT22;11737;50.558;7.258;2022-11-14T10:41:39;10.20;99.90
23137;DHT22;11737;50.558;7.258;2022-11-14T10:44:12;10.20;99.90
23137;DHT22;11737;50.558;7.258;2022-11-14T10:46:46;10.30;99.90
23137;DHT22;11737;50.558;7.258;2022-11-14T10:49:34;10.40;99.90
23137;DHT22;11737;50.558;7.258;2022-11-14T10:52:05;10.40;99.90
23137;DHT22;11737;50.558;7.258;2022-11-14T10:54:45;10.40;99.90
23137;DHT22;11737;50.558;7.258;2022-11-14T10:57:20;10.50;99.90
23137;DHT22;11737;50.558;7.258;2022-11-14T10:59:54;10.60;99.90
23137;DHT22;11737;50.558;7.258;2022-11-14T11:02:17;10.60;99.90
23137;DHT22;11737;50.558;7.258;2022-11-14T11:04:45;10.70;99.90
23137;DHT22;11737;50.558;7.258;2022-11-14T11:07:21;10.70;99.90
23137;DHT22;11737;50.558;7.258;2022-11-14T11:09:57;10.70;99.90
23137;DHT22;11737;50.558;7.258;2022-11-14T11:12:47;10.70;99.90
23137;DHT22;11737;50.558;7.258;2022-11-14T11:15:28;10.60;99.90
23137;DHT22;11737;50.558;7.258;2022-11-14T11:17:59;10.70;99.90
23137;DHT22;11737;50.558;7.258;2022-11-14T11:20:38;10.70;99.90
23137;DHT22;11737;50.558;7.258;2022-11-14T11:25:39;10.70;99.90
23137;DHT22;11737;50.558;7.258;2022-11-14T11:28:16;10.80;99.90
23137;DHT22;11737;50.558;7.258;2022-11-14T11:31:05;10.70;99.90
23137;DHT22;11737;50.558;7.258;2022-11-14T11:33:31;10.70;99.90
23137;DHT22;11737;50.558;7.258;2022-11-14T11:36:02;10.70;99.90
23137;DHT22;11737;50.558;7.258;2022-11-14T11:38:31;10.70;99.90
23137;DHT22;11737;50.558;7.258;2022-11-14T11:43:59;10.90;99.90
23137;DHT22;11737;50.558;7.258;2022-11-14T11:46:46;11.00;99.90
23137;DHT22;11737;50.558;7.258;2022-11-14T11:52:39;11.20;99.90
23137;DHT22;11737;50.558;7.258;2022-11-14T11:58:00;11.20;99.90
23137;DHT22;11737;50.558;7.258;2022-11-14T12:00:28;11.20;99.90
23137;DHT22;11737;50.558;7.258;2022-11-14T12:02:56;11.20;99.90
23137;DHT22;11737;50.558;7.258;2022-11-14T12:11:05;11.00;99.90
23137;DHT22;11737;50.558;7.258;2022-11-14T12:13:41;11.00;99.90
23137;DHT22;11737;50.558;7.258;2022-11-14T12:19:30;11.10;99.90
23137;DHT22;11737;50.558;7.258;2022-11-14T12:22:14;11.10;99.90
23137;DHT22;11737;50.558;7.258;2022-11-14T12:24:53;11.10;99.90
23137;DHT22;11737;50.558;7.258;2022-11-14T12:30:21;11.20;99.90
23137;DHT22;11737;50.558;7.258;2022-11-14T12:33:02;11.20;99.90
23137;DHT22;11737;50.558;7.258;2022-11-14T12:35:31;11.20;99.90
23137;DHT22;11737;50.558;7.258;2022-11-14T12:38:02;11.20;99.90
23137;DHT22;11737;50.558;7.258;2022-11-14T12:40:35;11.20;99.90
23137;DHT22;11737;50.558;7.258;2022-11-14T12:43:11;11.10;99.90
23137;DHT22;11737;50.558;7.258;2022-11-14T12:48:20;11.00;99.90
23137;DHT22;11737;50.558;7.258;2022-11-14T12:50:43;11.00;99.90
23137;DHT22;11737;50.558;7.258;2022-11-14T13:01:30;11.10;99.90
23137;DHT22;11737;50.558;7.258;2022-11-14T13:06:59;11.10;99.90
23137;DHT22;11737;50.558;7.258;2022-11-14T13:12:27;11.10;99.90
23137;DHT22;11737;50.558;7.258;2022-11-14T13:15:29;11.10;99.90
23137;DHT22;11737;50.558;7.258;2022-11-14T13:21:26;11.20;99.90
23137;DHT22;11737;50.558;7.258;2022-11-14T13:24:17;11.20;99.90
23137;DHT22;11737;50.558;7.258;2022-11-14T13:29:45;11.20;99.90
23137;DHT22;11737;50.558;7.258;2022-11-14T13:32:11;11.20;99.90
23137;DHT22;11737;50.558;7.258;2022-11-14T13:40:22;11.20;99.90
23137;DHT22;11737;50.558;7.258;2022-11-14T13:49:23;11.30;99.90
23137;DHT22;11737;50.558;7.258;2022-11-14T13:51:46;11.30;99.90
23137;DHT22;11737;50.558;7.258;2022-11-14T13:54:15;11.30;99.90
23137;DHT22;11737;50.558;7.258;2022-11-14T13:57:08;11.30;99.90
23137;DHT22;11737;50.558;7.258;2022-11-14T14:02:35;11.20;99.90
23137;DHT22;11737;50.558;7.258;2022-11-14T14:05:17;11.20;99.90
23137;DHT22;11737;50.558;7.258;2022-11-14T14:07:57;11.20;99.90
23137;DHT22;11737;50.558;7.258;2022-11-14T14:13:53;11.20;99.90
23137;DHT22;11737;50.558;7.258;2022-11-14T14:16:35;11.20;99.90
23137;DHT22;11737;50.558;7.258;2022-11-14T14:19:10;11.20;99.90
23137;DHT22;11737;50.558;7.258;2022-11-14T14:22:03;11.20;99.90
23137;DHT22;11737;50.558;7.258;2022-11-14T14:30:07;11.10;99.90
23137;DHT22;11737;50.558;7.258;2022-11-14T14:32:35;11.10;99.90
23137;DHT22;11737;50.558;7.258;2022-11-14T14:35:20;11.10;99.90
23137;DHT22;11737;50.558;7.258;2022-11-14T14:37:53;11.10;99.90
23137;DHT22;11737;50.558;7.258;2022-11-14T14:40:31;11.10;99.90
23137;DHT22;11737;50.558;7.258;2022-11-14T14:43:01;11.20;99.90
23137;DHT22;11737;50.558;7.258;2022-11-14T14:45:29;11.10;99.90
23137;DHT22;11737;50.558;7.258;2022-11-14T14:51:00;11.10;99.90
23137;DHT22;11737;50.558;7.258;2022-11-14T14:53:31;11.10;99.90
23137;DHT22;11737;50.558;7.258;2022-11-14T14:56:01;11.10;99.90
23137;DHT22;11737;50.558;7.258;2022-11-14T14:58:31;11.00;99.90
23137;DHT22;11737;50.558;7.258;2022-11-14T15:01:03;11.00;99.90
23137;DHT22;11737;50.558;7.258;2022-11-14T15:03:49;11.00;99.90
23137;DHT22;11737;50.558;7.258;2022-11-14T15:08:49;10.90;99.90
23137;DHT22;11737;50.558;7.258;2022-11-14T15:11:16;10.90;99.90
23137;DHT22;11737;50.558;7.258;2022-11-14T15:13:44;11.00;99.90
23137;DHT22;11737;50.558;7.258;2022-11-14T15:16:12;10.90;99.90
23137;DHT22;11737;50.558;7.258;2022-11-14T15:18:41;10.90;99.90
23137;DHT22;11737;50.558;7.258;2022-11-14T15:26:38;10.90;99.90
23137;DHT22;11737;50.558;7.258;2022-11-14T15:29:20;10.90;99.90
23137;DHT22;11737;50.558;7.258;2022-11-14T15:31:56;10.90;99.90
23137;DHT22;11737;50.558;7.258;2022-11-14T15:34:30;10.80;99.90
23137;DHT22;11737;50.558;7.258;2022-11-14T15:40:07;10.90;99.90
23137;DHT22;11737;50.558;7.258;2022-11-14T15:45:25;10.90;99.90
23137;DHT22;11737;50.558;7.258;2022-11-14T15:48:00;10.90;99.90
23137;DHT22;11737;50.558;7.258;2022-11-14T15:50:31;10.90;99.90
23137;DHT22;11737;50.558;7.258;2022-11-14T15:53:05;10.80;99.90
23137;DHT22;11737;50.558;7.258;2022-11-14T15:55:33;10.90;99.90
23137;DHT22;11737;50.558;7.258;2022-11-14T15:58:01;10.80;99.90
23137;DHT22;11737;50.558;7.258;2022-11-14T16:00:28;10.80;99.90
23137;DHT22;11737;50.558;7.258;2022-11-14T16:02:56;10.80;99.90
23137;DHT22;11737;50.558;7.258;2022-11-14T16:05:28;10.80;99.90
23137;DHT22;11737;50.558;7.258;2022-11-14T16:07:57;10.90;99.90
23137;DHT22;11737;50.558;7.258;2022-11-14T16:10:26;10.80;99.90
23137;DHT22;11737;50.558;7.258;2022-11-14T16:12:54;10.90;99.90
23137;DHT22;11737;50.558;7.258;2022-11-14T16:15:21;10.90;99.90
23137;DHT22;11737;50.558;7.258;2022-11-14T16:17:49;11.00;99.90
23137;DHT22;11737;50.558;7.258;2022-11-14T16:20:20;11.10;99.90
23137;DHT22;11737;50.558;7.258;2022-11-14T16:22:49;11.10;99.90
23137;DHT22;11737;50.558;7.258;2022-11-14T16:25:21;11.10;99.90
23137;DHT22;11737;50.558;7.258;2022-11-14T16:27:49;11.20;99.90
23137;DHT22;11737;50.558;7.258;2022-11-14T16:30:18;11.20;99.90
23137;DHT22;11737;50.558;7.258;2022-11-14T16:32:47;11.20;99.90
23137;DHT22;11737;50.558;7.258;2022-11-14T16:35:22;11.20;99.90
23137;DHT22;11737;50.558;7.258;2022-11-14T16:37:50;11.20;99.90
23137;DHT22;11737;50.558;7.258;2022-11-14T16:40:23;11.10;99.90
23137;DHT22;11737;50.558;7.258;2022-11-14T16:42:54;11.10;99.90
23137;DHT22;11737;50.558;7.258;2022-11-14T16:45:22;11.10;99.90
23137;DHT22;11737;50.558;7.258;2022-11-14T16:47:49;11.10;99.90
23137;DHT22;11737;50.558;7.258;2022-11-14T16:50:19;11.10;99.90
23137;DHT22;11737;50.558;7.258;2022-11-14T16:52:46;11.10;99.90
23137;DHT22;11737;50.558;7.258;2022-11-14T16:55:14;11.10;99.90
23137;DHT22;11737;50.558;7.258;2022-11-14T16:57:41;11.10;99.90
23137;DHT22;11737;50.558;7.258;2022-11-14T17:00:11;11.10;99.90
23137;DHT22;11737;50.558;7.258;2022-11-14T17:02:42;11.10;99.90
23137;DHT22;11737;50.558;7.258;2022-11-14T17:05:09;11.10;99.90
23137;DHT22;11737;50.558;7.258;2022-11-14T17:07:37;11.10;99.90
23137;DHT22;11737;50.558;7.258;2022-11-14T17:10:05;11.10;99.90
23137;DHT22;11737;50.558;7.258;2022-11-14T17:12:33;11.00;99.90
23137;DHT22;11737;50.558;7.258;2022-11-14T17:15:01;11.00;99.90
23137;DHT22;11737;50.558;7.258;2022-11-14T17:17:29;11.00;99.90
23137;DHT22;11737;50.558;7.258;2022-11-14T17:19:57;11.00;99.90
23137;DHT22;11737;50.558;7.258;2022-11-14T17:22:25;11.00;99.90
23137;DHT22;11737;50.558;7.258;2022-11-14T17:24:53;11.00;99.90
23137;DHT22;11737;50.558;7.258;2022-11-14T17:27:20;11.00;99.90
23137;DHT22;11737;50.558;7.258;2022-11-14T17:29:48;10.90;99.90
23137;DHT22;11737;50.558;7.258;2022-11-14T17:32:17;10.90;99.90
23137;DHT22;11737;50.558;7.258;2022-11-14T17:34:44;10.70;99.90
23137;DHT22;11737;50.558;7.258;2022-11-14T17:37:12;10.70;99.90
23137;DHT22;11737;50.558;7.258;2022-11-14T17:39:39;10.70;99.90
23137;DHT22;11737;50.558;7.258;2022-11-14T17:42:07;10.60;99.90
23137;DHT22;11737;50.558;7.258;2022-11-14T17:44:34;10.70;99.90
23137;DHT22;11737;50.558;7.258;2022-11-14T17:47:02;10.70;99.90
23137;DHT22;11737;50.558;7.258;2022-11-14T17:49:29;10.70;99.90
23137;DHT22;11737;50.558;7.258;2022-11-14T17:51:57;10.70;99.90
23137;DHT22;11737;50.558;7.258;2022-11-14T17:54:25;10.80;99.90
23137;DHT22;11737;50.558;7.258;2022-11-14T17:56:52;10.80;99.90
23137;DHT22;11737;50.558;7.258;2022-11-14T17:59:20;10.80;99.90
23137;DHT22;11737;50.558;7.258;2022-11-14T18:01:47;10.80;99.90
23137;DHT22;11737;50.558;7.258;2022-11-14T18:04:15;10.80;99.90
23137;DHT22;11737;50.558;7.258;2022-11-14T18:06:42;10.70;99.90